Overview Statistics Trail Chart Weather Telemetry Raw packets
 

This is the latest recevied weather packets stored in our database for station/object KD8DNO-13. If no packets are shown the sender has not sent any weather packets the latest 10 day(s).

<< 105 106 107 108 109 110 111 >>
Time Temp. Humidity Pressure Rain* Wind** Luminosity Snow
1787776084 26.11° C 59% 1016.9 hPa 0 mm - - -
1787775784 26.11° C 59% 1016.9 hPa 0 mm - - -
1787775484 26.67° C 57% 1016.9 hPa 0 mm - - -
1787775184 27.22° C 54% 1017.2 hPa 0 mm - - -
1787774884 26.67° C 57% 1017.2 hPa 0 mm - - -
1787774584 26.67° C 56% 1017.2 hPa 0 mm - - -
1787774283 26.11° C 57% 1017.2 hPa 0 mm - - -
1787773983 26.11° C 56% 1017.2 hPa 0 mm - - -
1787773683 25.56° C 59% 1017.2 hPa 0 mm - - -
1787773383 26.67° C 57% 1017.2 hPa 0 mm - - -
1787773083 25° C 60% 1017.2 hPa 0 mm - - -
1787772783 25.56° C 59% 1017.2 hPa 0 mm - - -
1787772484 25.56° C 59% 1017.2 hPa 0 mm - - -
1787772184 26.11° C 57% 1017.2 hPa 0 mm - - -
1787771883 25.56° C 59% 1017.2 hPa 0 mm - - -
1787771584 26.11° C 56% 1017.6 hPa 0 mm - - -
1787771284 25.56° C 58% 1017.6 hPa 0 mm - - -
1787770983 26.11° C 57% 1017.6 hPa 0 mm - - -
1787770684 25.56° C 58% 1017.6 hPa 0 mm - - -
1787770384 26.11° C 56% 1017.6 hPa 0 mm - - -
1787770083 25.56° C 60% 1017.6 hPa 0 mm - - -
1787769783 25° C 58% 1017.6 hPa 0 mm - - -
1787769483 25° C 59% 1017.6 hPa 0 mm - - -
1787769183 26.11° C 57% 1017.6 hPa 0 mm - - -
1787768884 26.11° C 57% 1017.6 hPa 0 mm - - -

* Rain latest hour (hover to see other rain measurements)
** Current wind speed in m/s (hover to see current wind gust speed)